createdAt,value
2018-04-14T00:01:13.918Z,62.17
2018-04-14T00:03:41.428Z,64.23
2018-04-14T00:06:08.967Z,60.00
2018-04-14T00:08:36.516Z,63.53
2018-04-14T00:11:06.423Z,59.47
2018-04-14T00:13:34.015Z,61.57
2018-04-14T00:16:02.607Z,57.90
2018-04-14T00:18:31.618Z,58.33
2018-04-14T00:20:59.163Z,59.00
2018-04-14T00:23:26.746Z,61.40
2018-04-14T00:25:54.300Z,63.50
2018-04-14T00:28:22.513Z,62.50
2018-04-14T00:30:50.152Z,59.13
2018-04-14T00:33:18.586Z,67.30
2018-04-14T00:35:46.075Z,63.27
2018-04-14T00:38:13.640Z,56.97
2018-04-14T00:40:41.182Z,61.80
2018-04-14T00:43:08.750Z,62.63
2018-04-14T00:45:38.515Z,65.57
2018-04-14T00:48:06.067Z,62.40
2018-04-14T00:50:34.155Z,64.23
2018-04-14T00:53:13.475Z,59.60
2018-04-14T00:55:41.039Z,64.33
2018-04-14T00:58:08.592Z,56.67
2018-04-14T01:00:36.242Z,58.73
2018-04-14T01:03:06.356Z,60.00
2018-04-14T01:05:33.960Z,66.03
2018-04-14T01:08:01.909Z,61.53
2018-04-14T01:10:31.675Z,63.07
2018-04-14T01:12:59.218Z,61.50
2018-04-14T01:15:26.720Z,65.57
2018-04-14T01:17:55.232Z,66.70
2018-04-14T01:20:24.715Z,61.27
2018-04-14T01:22:53.373Z,58.30
2018-04-14T01:25:25.252Z,60.27
2018-04-14T01:27:52.763Z,67.67
2018-04-14T01:30:20.264Z,65.13
2018-04-14T01:32:47.778Z,60.80
2018-04-14T01:35:15.385Z,64.67
2018-04-14T01:37:44.790Z,63.20
2018-04-14T01:40:14.366Z,60.23
2018-04-14T01:42:47.680Z,61.13
2018-04-14T01:45:15.215Z,56.27
2018-04-14T01:47:42.759Z,57.33
2018-04-14T01:50:10.288Z,54.50
2018-04-14T01:52:37.931Z,53.57
2018-04-14T01:55:08.624Z,55.07
2018-04-14T01:57:37.353Z,54.87
2018-04-14T02:00:05.928Z,61.47
2018-04-14T02:02:33.455Z,59.13
2018-04-14T02:05:00.999Z,60.33
2018-04-14T02:07:28.514Z,53.90
2018-04-14T02:09:56.231Z,54.00
2018-04-14T02:12:26.187Z,51.83
2018-04-14T02:14:56.645Z,54.97
2018-04-14T02:17:26.263Z,55.70
2018-04-14T02:19:53.883Z,55.17
2018-04-14T02:22:21.427Z,51.73
2018-04-14T02:24:48.986Z,57.33
2018-04-14T02:27:16.586Z,56.47
2018-04-14T02:29:46.635Z,53.33
2018-04-14T02:32:14.177Z,55.53
2018-04-14T02:34:44.772Z,51.73
2018-04-14T02:37:12.340Z,52.83
2018-04-14T02:39:39.834Z,54.50
2018-04-14T02:42:07.451Z,55.43
2018-04-14T02:44:35.060Z,56.70
2018-04-14T02:47:04.433Z,54.20
2018-04-14T02:49:33.167Z,52.37
2018-04-14T02:52:01.785Z,55.07
2018-04-14T02:54:29.306Z,55.47
2018-04-14T02:56:56.854Z,49.77
2018-04-14T02:59:24.448Z,52.27
2018-04-14T03:01:52.063Z,53.77
2018-04-14T03:04:20.632Z,50.05
2018-04-14T03:06:50.697Z,51.33
2018-04-14T03:09:22.095Z,52.20
2018-04-14T03:11:49.619Z,60.97
2018-04-14T03:14:17.162Z,52.73
2018-04-14T03:16:44.691Z,54.97
2018-04-14T03:19:12.314Z,52.80
2018-04-14T03:21:40.986Z,53.07
2018-04-14T03:24:13.553Z,54.50
2018-04-14T03:26:42.054Z,57.47
2018-04-14T03:29:09.583Z,56.53
2018-04-14T03:31:37.099Z,54.15
2018-04-14T03:34:04.639Z,52.50
2018-04-14T03:36:32.255Z,59.73
2018-04-14T03:39:02.207Z,51.63
2018-04-14T03:41:32.582Z,49.73
2018-04-14T03:44:02.671Z,51.42
2018-04-14T03:46:30.190Z,60.40
2018-04-14T03:48:57.727Z,62.23
2018-04-14T03:51:25.255Z,60.37
2018-04-14T03:53:52.863Z,62.47
2018-04-14T03:56:22.463Z,61.40
2018-04-14T03:58:50.059Z,65.65
2018-04-14T04:01:18.211Z,61.93
2018-04-14T04:03:45.754Z,57.90
2018-04-14T04:06:13.267Z,64.67
2018-04-14T04:08:40.795Z,62.63
2018-04-14T04:11:08.470Z,73.87
2018-04-14T04:13:38.769Z,65.07
2018-04-14T04:16:08.371Z,65.43
2018-04-14T04:18:49.507Z,66.77
2018-04-14T04:21:28.763Z,63.03
2018-04-14T04:24:08.070Z,68.43
2018-04-14T04:26:35.656Z,68.47
2018-04-14T04:29:05.055Z,66.50
2018-04-14T04:31:33.575Z,65.57
2018-04-14T04:34:03.165Z,72.27
2018-04-14T04:36:33.453Z,64.90
2018-04-14T04:39:00.951Z,63.93
2018-04-14T04:41:28.502Z,69.90
2018-04-14T04:43:55.994Z,66.40
2018-04-14T04:46:25.758Z,67.30
2018-04-14T04:48:54.904Z,69.43
2018-04-14T04:51:24.540Z,72.67
2018-04-14T04:53:54.619Z,70.20
2018-04-14T04:56:22.158Z,72.83
2018-04-14T04:58:49.683Z,69.60
2018-04-14T05:01:17.354Z,64.27
2018-04-14T05:06:21.472Z,56.10
2018-04-14T05:08:53.659Z,60.47
2018-04-14T05:11:22.567Z,57.10
2018-04-14T05:13:50.106Z,61.35
2018-04-14T05:16:17.726Z,59.03
2018-04-14T05:18:45.243Z,54.77
2018-04-14T05:21:13.665Z,56.73
2018-04-14T05:23:42.746Z,61.70
2018-04-14T05:26:12.303Z,55.50
2018-04-14T05:28:42.435Z,62.63
2018-04-14T05:31:09.947Z,58.53
2018-04-14T05:33:37.499Z,56.30
2018-04-14T05:36:05.040Z,57.37
2018-04-14T05:38:33.492Z,54.77
2018-04-14T05:41:01.898Z,50.23
2018-04-14T05:43:30.459Z,54.53
2018-04-14T05:45:58.243Z,54.57
2018-04-14T05:48:26.763Z,55.27
2018-04-14T05:50:55.363Z,49.63
2018-04-14T05:53:22.871Z,53.53
2018-04-14T05:55:53.547Z,54.87
2018-04-14T05:58:37.693Z,53.63
2018-04-14T06:01:13.563Z,54.57
2018-04-14T06:03:48.979Z,57.57
2018-04-14T06:06:16.550Z,56.63
2018-04-14T06:08:44.095Z,57.30
2018-04-14T06:11:11.674Z,60.60
2018-04-14T06:13:42.707Z,54.43
2018-04-14T06:18:44.785Z,56.10
2018-04-14T06:21:12.989Z,58.43
2018-04-14T06:23:40.522Z,57.47
2018-04-14T06:26:08.032Z,55.30
2018-04-14T06:28:35.543Z,54.80
2018-04-14T06:31:04.781Z,61.03
2018-04-14T06:33:32.998Z,56.23
2018-04-14T06:36:04.389Z,56.60
2018-04-14T06:38:34.405Z,52.80
2018-04-14T06:41:02.298Z,54.50
2018-04-14T06:43:29.799Z,50.00
2018-04-14T06:45:57.355Z,51.77
2018-04-14T06:48:34.007Z,53.97
2018-04-14T06:53:42.812Z,54.27
2018-04-14T06:56:17.001Z,50.67
2018-04-14T06:58:44.544Z,53.87
2018-04-14T07:01:12.144Z,49.97
2018-04-14T07:03:39.670Z,45.67
2018-04-14T07:06:12.625Z,49.23
2018-04-14T07:08:42.772Z,48.13
2018-04-14T07:35:30.543Z,43.57
2018-04-14T07:37:58.100Z,43.87
2018-04-14T07:40:26.407Z,40.87
2018-04-14T07:42:57.492Z,43.83
2018-04-14T07:45:26.117Z,44.37
2018-04-14T07:47:53.619Z,39.37
2018-04-14T07:50:21.153Z,40.63
2018-04-14T07:52:48.728Z,41.93
2018-04-14T07:55:16.288Z,41.23
2018-04-14T07:57:45.417Z,43.07
2018-04-14T08:00:14.654Z,40.17
2018-04-14T08:02:42.328Z,41.13
2018-04-14T08:05:09.871Z,43.17
2018-04-14T08:07:37.446Z,42.03
2018-04-14T08:10:04.992Z,38.97
2018-04-14T08:12:32.583Z,37.57
2018-04-14T08:15:00.804Z,38.07
2018-04-14T08:17:28.764Z,44.80
2018-04-14T08:19:56.828Z,42.47
2018-04-14T08:22:24.415Z,40.03
2018-04-14T08:24:51.936Z,42.17
2018-04-14T08:27:19.444Z,38.07
2018-04-14T08:29:47.035Z,42.77
2018-04-14T08:32:14.643Z,42.03
2018-04-14T08:34:42.238Z,43.60
2018-04-14T08:37:13.185Z,38.03
2018-04-14T08:39:40.703Z,39.23
2018-04-14T08:42:08.222Z,40.67
2018-04-14T08:44:35.811Z,41.23
2018-04-14T08:47:03.379Z,39.50
2018-04-14T08:49:31.287Z,40.87
2018-04-14T08:52:01.785Z,39.83
2018-04-14T08:54:30.614Z,36.93
2018-04-14T08:56:58.167Z,35.67
2018-04-14T08:59:25.726Z,33.53
2018-04-14T09:01:53.249Z,35.97
2018-04-14T09:04:20.812Z,35.17
2018-04-14T09:06:48.759Z,34.43
2018-04-14T09:09:16.775Z,36.27
2018-04-14T09:11:45.259Z,35.37
2018-04-14T09:14:12.863Z,34.17
2018-04-14T09:16:40.449Z,33.50
2018-04-14T09:19:07.991Z,37.53
2018-04-14T09:21:35.600Z,34.17
2018-04-14T09:24:03.085Z,32.73
2018-04-14T09:26:30.615Z,33.63
2018-04-14T09:28:58.842Z,32.00
2018-04-14T09:31:26.398Z,31.67
2018-04-14T09:33:53.873Z,30.43
2018-04-14T09:36:21.471Z,31.33
2018-04-14T09:38:49.085Z,29.67
2018-04-14T09:49:17.569Z,29.50
2018-04-14T09:51:45.130Z,29.40
2018-04-14T09:54:12.682Z,29.30
2018-04-14T09:56:40.677Z,28.60
2018-04-14T09:59:30.741Z,31.10
2018-04-14T10:07:35.287Z,29.67
2018-04-14T10:10:02.877Z,30.70
2018-04-14T10:12:30.431Z,31.07
2018-04-14T10:22:52.099Z,37.80
2018-04-14T10:25:19.754Z,32.10
2018-04-14T10:27:47.313Z,32.50
2018-04-14T10:30:14.927Z,33.50
2018-04-14T10:41:50.579Z,35.40
2018-04-14T10:44:18.138Z,33.10
2018-04-14T10:46:45.681Z,32.87
2018-04-14T10:58:29.498Z,30.03
2018-04-14T11:00:57.019Z,27.77
2018-04-14T11:03:24.688Z,26.63
2018-04-14T11:16:24.112Z,33.80
2018-04-14T11:18:51.669Z,37.47
2018-04-14T11:21:19.287Z,32.17
2018-04-14T11:23:46.865Z,32.43
2018-04-14T11:26:14.541Z,32.17
2018-04-14T11:28:45.797Z,30.87
2018-04-14T11:31:14.431Z,31.67
2018-04-14T11:33:41.956Z,34.97
2018-04-14T11:36:09.485Z,33.73
2018-04-14T11:38:37.095Z,36.90
2018-04-14T11:41:04.853Z,33.73
2018-04-14T11:43:32.507Z,36.83
2018-04-14T11:46:00.124Z,37.37
2018-04-14T11:48:27.724Z,35.60
2018-04-14T11:50:55.257Z,34.87
2018-04-14T11:53:22.859Z,34.70
2018-04-14T11:55:50.387Z,38.20
2018-04-14T11:58:18.143Z,40.57
2018-04-14T12:00:45.699Z,38.57
2018-04-14T12:03:13.331Z,39.03
2018-04-14T12:05:40.920Z,41.40
2018-04-14T12:08:08.493Z,37.43
2018-04-14T12:10:36.017Z,41.37
2018-04-14T12:13:03.599Z,41.50
2018-04-14T12:15:31.220Z,40.00
2018-04-14T12:17:58.775Z,42.10
2018-04-14T12:20:26.503Z,41.70
2018-04-14T12:22:54.076Z,44.83
2018-04-14T12:25:21.692Z,42.43
2018-04-14T12:27:49.204Z,42.77
2018-04-14T12:30:16.727Z,39.73
2018-04-14T12:32:44.411Z,39.63
2018-04-14T12:35:12.171Z,41.40
2018-04-14T12:37:39.837Z,42.17
2018-04-14T12:40:07.515Z,45.67
2018-04-14T12:42:35.082Z,43.10
2018-04-14T12:45:02.600Z,44.20
2018-04-14T12:47:30.145Z,40.93
2018-04-14T12:49:57.725Z,39.67
2018-04-14T12:52:25.334Z,41.10
2018-04-14T12:54:52.959Z,41.87
2018-04-14T12:57:20.635Z,44.53
2018-04-14T12:59:48.179Z,42.93
2018-04-14T13:02:15.743Z,36.70
2018-04-14T13:04:44.293Z,38.73
2018-04-14T13:07:14.424Z,41.40
2018-04-14T13:09:45.869Z,39.23
2018-04-14T13:12:14.819Z,42.20
2018-04-14T13:14:42.583Z,43.83
2018-04-14T13:17:10.112Z,39.20
2018-04-14T13:19:37.647Z,40.60
2018-04-14T13:22:05.300Z,43.77
2018-04-14T13:24:36.825Z,37.40
2018-04-14T13:27:08.842Z,37.77
2018-04-14T13:29:40.757Z,40.47
2018-04-14T13:32:12.700Z,39.60
2018-04-14T13:34:40.267Z,37.17
2018-04-14T13:37:07.838Z,38.63
2018-04-14T13:39:35.408Z,38.63
2018-04-14T13:42:04.771Z,39.13
2018-04-14T13:44:36.967Z,36.80
2018-04-14T13:47:05.885Z,36.37
2018-04-14T13:49:33.415Z,35.97
2018-04-14T13:52:00.960Z,35.53
2018-04-14T13:54:28.525Z,36.53
2018-04-14T13:56:56.090Z,38.57
2018-04-14T13:59:26.045Z,39.67
2018-04-14T14:01:56.849Z,39.27
2018-04-14T14:04:26.808Z,35.07
2018-04-14T14:06:54.363Z,34.80
2018-04-14T14:09:21.873Z,35.83
2018-04-14T14:11:49.463Z,34.17
2018-04-14T14:14:17.072Z,33.90
2018-04-14T14:16:46.952Z,34.07
2018-04-14T14:19:14.633Z,35.67
2018-04-14T14:21:42.947Z,35.07
2018-04-14T14:24:10.747Z,35.77
2018-04-14T14:26:38.379Z,33.07
2018-04-14T14:29:05.997Z,30.07
2018-04-14T14:31:33.592Z,35.87
2018-04-14T14:34:01.143Z,34.13
2018-04-14T14:39:14.122Z,31.27
2018-04-14T14:41:43.198Z,32.87
2018-04-14T14:44:10.723Z,34.53
2018-04-14T14:46:38.287Z,35.47
2018-04-14T14:49:05.895Z,31.23
2018-04-14T14:51:33.632Z,27.07
2018-04-14T14:54:02.369Z,31.90
2018-04-14T14:56:30.484Z,29.13
2018-04-14T14:58:59.205Z,26.43
2018-04-14T15:01:26.760Z,24.80
2018-04-14T15:03:54.295Z,28.20
2018-04-14T15:06:21.926Z,28.93
2018-04-14T15:08:50.695Z,30.33
2018-04-14T15:11:18.352Z,27.47
2018-04-14T15:13:47.560Z,22.93
2018-04-14T15:16:16.152Z,29.17
2018-04-14T15:18:43.759Z,25.20
2018-04-14T15:21:12.663Z,27.47
2018-04-14T15:23:41.996Z,26.53
2018-04-14T15:26:10.611Z,21.63
2018-04-14T15:28:39.066Z,27.17
2018-04-14T15:31:06.707Z,22.77
2018-04-14T15:33:34.333Z,24.30
2018-04-14T15:36:01.858Z,22.80
2018-04-14T15:38:29.382Z,20.63
2018-04-14T15:40:56.918Z,19.90
2018-04-14T15:43:24.835Z,23.83
2018-04-14T15:45:52.999Z,22.07
2018-04-14T15:48:21.143Z,23.80
2018-04-14T15:50:49.023Z,19.40
2018-04-14T15:53:16.591Z,23.33
2018-04-14T15:55:44.130Z,21.97
2018-04-14T15:58:11.701Z,22.37
2018-04-14T16:00:41.099Z,24.83
2018-04-14T16:03:09.991Z,21.87
2018-04-14T16:05:38.857Z,20.50
2018-04-14T16:08:06.478Z,18.57
2018-04-14T16:10:34.005Z,17.07
2018-04-14T16:13:01.551Z,20.80
2018-04-14T16:15:29.113Z,21.03
2018-04-14T16:17:57.911Z,21.00
2018-04-14T16:20:29.228Z,23.57
2018-04-14T16:28:07.763Z,25.40
2018-04-14T16:30:35.307Z,21.07
2018-04-14T16:33:02.922Z,21.63
2018-04-14T16:35:30.519Z,19.67
2018-04-14T16:37:58.662Z,20.93
2018-04-14T16:40:33.027Z,22.40
2018-04-14T16:43:00.680Z,23.43
2018-04-14T16:45:28.207Z,20.53
2018-04-14T16:47:55.788Z,23.77
2018-04-14T16:50:23.386Z,22.77
2018-04-14T16:52:58.998Z,25.70
2018-04-14T16:55:26.739Z,25.03
2018-04-14T17:00:29.143Z,27.43
2018-04-14T17:02:56.693Z,29.83
2018-04-14T17:05:24.232Z,33.70
2018-04-14T17:07:51.863Z,31.13
2018-04-14T17:10:22.592Z,34.93
2018-04-14T17:12:53.167Z,36.00
2018-04-14T17:15:21.665Z,40.80
2018-04-14T17:17:49.284Z,38.77
2018-04-14T17:20:16.828Z,35.80
2018-04-14T17:22:44.388Z,36.90
2018-04-14T17:25:12.263Z,34.50
2018-04-14T17:27:41.080Z,38.70
2018-04-14T17:30:11.115Z,39.20
2018-04-14T17:32:41.165Z,37.97
2018-04-14T17:35:08.755Z,39.87
2018-04-14T17:37:36.295Z,41.13
2018-04-14T17:40:03.860Z,40.10
2018-04-14T17:42:31.418Z,40.27
2018-04-14T17:44:58.986Z,41.73
2018-04-14T17:47:26.609Z,37.40
2018-04-14T17:49:55.274Z,38.77
2018-04-14T17:52:23.820Z,41.37
2018-04-14T17:54:51.335Z,37.37
2018-04-14T17:57:18.854Z,39.83
2018-04-14T17:59:46.635Z,39.43
2018-04-14T18:07:49.340Z,40.03
2018-04-14T18:10:16.900Z,37.17
2018-04-14T18:12:44.432Z,32.93
2018-04-14T18:15:11.980Z,35.37
2018-04-14T18:22:50.475Z,30.23
2018-04-14T18:25:21.245Z,31.73
2018-04-14T18:27:48.800Z,32.47
2018-04-14T18:30:16.352Z,32.40
2018-04-14T18:32:43.887Z,34.83
2018-04-14T18:35:13.334Z,35.37
2018-04-14T18:37:45.503Z,36.43
2018-04-14T18:40:18.034Z,33.07
2018-04-14T18:42:47.016Z,34.13
2018-04-14T18:45:14.581Z,37.10
2018-04-14T18:47:42.112Z,35.57
2018-04-14T18:50:09.669Z,33.60
2018-04-14T18:52:38.290Z,29.13
2018-04-14T18:55:06.983Z,34.17
2018-04-14T18:57:34.640Z,36.70
2018-04-14T19:00:05.615Z,34.60
2018-04-14T19:02:33.187Z,33.50
2018-04-14T19:05:00.761Z,36.10
2018-04-14T19:07:28.328Z,34.77
2018-04-14T19:09:58.114Z,34.57
2018-04-14T19:12:26.561Z,36.97
2018-04-14T19:14:55.017Z,35.00
2018-04-14T19:17:33.085Z,38.37
2018-04-14T19:20:00.685Z,35.73
2018-04-14T19:22:28.202Z,37.50
2018-04-14T19:24:56.415Z,41.47
2018-04-14T19:27:27.094Z,40.43
2018-04-14T19:29:54.721Z,45.33
2018-04-14T19:32:23.128Z,43.23
2018-04-14T19:34:54.498Z,46.53
2018-04-14T19:37:22.067Z,47.50
2018-04-14T19:39:49.739Z,50.07
2018-04-14T19:42:17.407Z,48.03
2018-04-14T19:44:49.948Z,50.63
2018-04-14T19:47:33.248Z,46.83
2018-04-14T19:50:02.770Z,49.10
2018-04-14T19:52:30.406Z,50.93
2018-04-14T19:54:57.956Z,49.07
2018-04-14T19:57:25.531Z,50.20
2018-04-14T19:59:53.100Z,48.47
2018-04-14T20:02:23.175Z,49.97
2018-04-14T20:04:53.939Z,50.80
2018-04-14T20:07:34.760Z,50.80
2018-04-14T20:10:02.307Z,53.33
2018-04-14T20:12:29.931Z,50.80
2018-04-14T20:14:57.462Z,53.20
2018-04-14T20:17:29.493Z,51.77
2018-04-14T20:20:01.945Z,53.80
2018-04-14T20:22:34.155Z,52.37
2018-04-14T20:27:54.578Z,54.63
2018-04-14T20:30:22.160Z,51.97
2018-04-14T20:32:49.718Z,51.27
2018-04-14T20:35:21.021Z,53.87
2018-04-14T20:46:25.519Z,58.10
2018-04-14T20:48:53.090Z,56.80
2018-04-14T20:51:20.701Z,56.43
2018-04-14T21:02:44.133Z,62.33
2018-04-14T21:05:11.779Z,59.00
2018-04-14T21:07:39.327Z,62.67
2018-04-14T21:10:07.151Z,65.23
2018-04-14T21:17:46.173Z,60.77
2018-04-14T21:20:13.811Z,63.40
2018-04-14T21:22:41.425Z,54.57
2018-04-14T21:25:08.968Z,57.07
2018-04-14T21:27:53.215Z,58.37
2018-04-14T21:35:27.496Z,55.27
2018-04-14T21:37:55.051Z,55.07
2018-04-14T21:40:22.572Z,55.23
2018-04-14T21:42:50.197Z,54.07
2018-04-14T21:45:21.010Z,53.93
2018-04-14T21:47:51.153Z,46.83
2018-04-14T21:50:18.763Z,49.10
2018-04-14T21:52:49.014Z,54.33
2018-04-14T21:55:16.573Z,51.00
2018-04-14T21:57:44.132Z,50.40
2018-04-14T22:00:11.767Z,49.40
2018-04-14T22:02:41.025Z,47.77
2018-04-14T22:05:11.187Z,46.37
2018-04-14T22:07:46.004Z,50.03
2018-04-14T22:10:13.615Z,49.37
2018-04-14T22:12:41.230Z,46.53
2018-04-14T22:15:08.758Z,46.07
2018-04-14T22:17:36.322Z,49.20
2018-04-14T22:20:06.144Z,50.63
2018-04-14T22:22:35.020Z,47.97
2018-04-14T22:25:02.792Z,44.20
2018-04-14T22:27:30.399Z,47.40
2018-04-14T22:29:57.998Z,46.50
2018-04-14T22:32:25.564Z,42.93
2018-04-14T22:34:53.198Z,48.73
2018-04-14T22:37:24.981Z,46.03
2018-04-14T22:39:55.130Z,47.93
2018-04-14T22:42:22.848Z,45.07
2018-04-14T22:44:51.125Z,47.17
2018-04-14T22:47:18.659Z,43.73
2018-04-14T22:49:46.302Z,42.07
2018-04-14T22:52:13.863Z,47.87
2018-04-14T22:54:47.197Z,41.70
2018-04-14T22:57:22.220Z,44.23
2018-04-14T22:59:50.813Z,41.40
2018-04-14T23:02:18.355Z,44.43
2018-04-14T23:04:45.951Z,45.33
2018-04-14T23:07:13.510Z,43.63
2018-04-14T23:09:41.035Z,40.67
2018-04-14T23:12:13.039Z,46.33
2018-04-14T23:14:43.269Z,44.60
2018-04-14T23:17:18.803Z,43.23
2018-04-14T23:19:46.355Z,41.60
2018-04-14T23:22:15.971Z,41.87
2018-04-14T23:24:43.551Z,48.13
2018-04-14T23:27:11.152Z,42.77
2018-04-14T23:29:38.873Z,41.80
2018-04-14T23:32:09.340Z,45.50
2018-04-14T23:34:38.494Z,41.50
2018-04-14T23:37:06.037Z,47.67
2018-04-14T23:39:33.623Z,43.80
2018-04-14T23:42:01.151Z,42.97
2018-04-14T23:44:28.731Z,43.40
2018-04-14T23:47:03.018Z,50.23
2018-04-14T23:49:30.696Z,46.03
2018-04-14T23:52:01.004Z,43.97
2018-04-14T23:54:28.544Z,40.23
2018-04-14T23:56:56.103Z,44.17
2018-04-14T23:59:23.689Z,42.93
